createdAt,value
2018-01-15T00:01:15.870Z,22.20
2018-01-15T00:03:44.136Z,19.53
2018-01-15T00:06:11.615Z,18.70
2018-01-15T00:08:39.114Z,20.90
2018-01-15T00:11:06.595Z,20.70
2018-01-15T00:13:34.089Z,22.73
2018-01-15T00:16:01.572Z,22.73
2018-01-15T00:18:30.053Z,20.37
2018-01-15T00:20:57.530Z,20.87
2018-01-15T00:23:25.031Z,18.93
2018-01-15T00:25:52.510Z,20.63
2018-01-15T00:28:20.032Z,23.57
2018-01-15T00:30:47.510Z,21.13
2018-01-15T00:33:15.008Z,19.07
2018-01-15T00:35:42.483Z,21.03
2018-01-15T00:38:09.986Z,20.93
2018-01-15T00:40:37.467Z,21.13
2018-01-15T00:43:04.963Z,20.17
2018-01-15T00:45:32.438Z,21.80
2018-01-15T00:47:59.935Z,20.70
2018-01-15T00:50:28.183Z,20.63
2018-01-15T00:52:55.682Z,21.60
2018-01-15T00:55:23.158Z,21.50
2018-01-15T00:57:50.823Z,21.57
2018-01-15T01:00:18.298Z,24.17
2018-01-15T01:02:45.779Z,22.97
2018-01-15T01:05:14.048Z,20.80
2018-01-15T01:07:41.544Z,25.90
2018-01-15T01:10:09.807Z,21.30
2018-01-15T01:12:37.288Z,19.33
2018-01-15T01:15:04.784Z,20.60
2018-01-15T01:17:32.259Z,22.90
2018-01-15T01:19:59.762Z,20.70
2018-01-15T01:22:27.234Z,19.87
2018-01-15T01:24:54.746Z,19.47
2018-01-15T01:27:22.986Z,24.40
2018-01-15T01:29:50.494Z,20.60
2018-01-15T01:32:17.976Z,21.20
2018-01-15T01:34:46.244Z,23.30
2018-01-15T01:37:13.770Z,21.73
2018-01-15T01:39:41.998Z,21.00
2018-01-15T01:42:09.479Z,22.03
2018-01-15T01:44:36.979Z,20.67
2018-01-15T01:47:04.458Z,25.73
2018-01-15T01:49:31.958Z,21.83
2018-01-15T01:51:59.431Z,21.70
2018-01-15T01:54:26.930Z,25.37
2018-01-15T01:56:54.412Z,20.00
2018-01-15T01:59:22.675Z,24.77
2018-01-15T02:01:50.154Z,23.07
2018-01-15T02:04:17.634Z,23.60
2018-01-15T02:06:45.898Z,21.40
2018-01-15T02:09:13.383Z,18.87
2018-01-15T02:11:40.886Z,21.70
2018-01-15T02:14:08.370Z,22.87
2018-01-15T02:16:35.870Z,28.23
2018-01-15T02:19:03.350Z,24.47
2018-01-15T02:21:30.843Z,25.30
2018-01-15T02:23:59.095Z,24.03
2018-01-15T02:26:26.590Z,20.13
2018-01-15T02:28:54.079Z,28.03
2018-01-15T02:31:21.605Z,23.57
2018-01-15T02:33:49.078Z,22.80
2018-01-15T02:36:16.574Z,22.20
2018-01-15T02:38:44.056Z,23.10
2018-01-15T02:41:12.328Z,25.20
2018-01-15T02:43:39.811Z,26.07
2018-01-15T02:46:08.084Z,20.73
2018-01-15T02:48:35.570Z,26.50
2018-01-15T02:51:03.839Z,21.33
2018-01-15T02:53:31.318Z,24.43
2018-01-15T02:55:58.827Z,19.70
2018-01-15T02:58:26.307Z,20.50
2018-01-15T03:00:54.574Z,22.33
2018-01-15T03:03:22.059Z,21.80
2018-01-15T03:05:49.538Z,22.10
2018-01-15T03:08:17.035Z,19.10
2018-01-15T03:10:44.512Z,22.53
2018-01-15T03:13:15.359Z,21.00
2018-01-15T03:15:42.844Z,22.60
2018-01-15T03:18:10.343Z,24.83
2018-01-15T03:20:37.826Z,19.90
2018-01-15T03:23:06.094Z,21.60
2018-01-15T03:25:34.330Z,26.40
2018-01-15T03:28:01.827Z,23.90
2018-01-15T03:30:29.303Z,23.10
2018-01-15T03:32:56.798Z,22.90
2018-01-15T03:35:24.275Z,20.80
2018-01-15T03:37:51.780Z,21.70
2018-01-15T03:40:19.251Z,22.57
2018-01-15T03:42:46.746Z,23.20
2018-01-15T03:45:14.227Z,23.60
2018-01-15T03:47:42.491Z,24.57
2018-01-15T03:50:09.976Z,22.80
2018-01-15T03:52:37.479Z,22.70
2018-01-15T03:55:04.966Z,23.03
2018-01-15T03:57:32.475Z,22.87
2018-01-15T04:00:01.040Z,24.50
2018-01-15T04:02:28.540Z,20.87
2018-01-15T04:04:56.014Z,22.37
2018-01-15T04:07:23.495Z,24.90
2018-01-15T04:09:50.991Z,22.00
2018-01-15T04:12:18.474Z,23.83
2018-01-15T04:14:45.971Z,24.40
2018-01-15T04:17:14.466Z,21.00
2018-01-15T04:19:41.962Z,22.77
2018-01-15T04:22:09.439Z,21.93
2018-01-15T04:24:37.123Z,24.27
2018-01-15T04:27:05.370Z,19.07
2018-01-15T04:29:32.867Z,25.47
2018-01-15T04:32:00.343Z,21.07
2018-01-15T04:34:28.611Z,24.57
2018-01-15T04:36:56.094Z,23.50
2018-01-15T04:39:23.695Z,21.30
2018-01-15T04:41:51.225Z,24.07
2018-01-15T04:44:24.847Z,22.97
2018-01-15T04:46:52.332Z,23.57
2018-01-15T04:49:20.595Z,24.70
2018-01-15T04:51:48.075Z,23.37
2018-01-15T04:54:15.576Z,23.40
2018-01-15T04:56:43.818Z,24.47
2018-01-15T04:59:11.314Z,26.10
2018-01-15T05:01:38.791Z,26.33
2018-01-15T05:04:06.286Z,22.97
2018-01-15T05:06:33.763Z,25.20
2018-01-15T05:09:01.261Z,22.47
2018-01-15T05:11:28.742Z,25.23
2018-01-15T05:13:56.219Z,26.30
2018-01-15T05:16:23.719Z,28.23
2018-01-15T05:18:51.963Z,27.30
2018-01-15T05:21:19.459Z,29.37
2018-01-15T05:23:47.703Z,25.53
2018-01-15T05:26:15.202Z,24.37
2018-01-15T05:28:42.679Z,23.53
2018-01-15T05:31:10.181Z,26.67
2018-01-15T05:33:37.659Z,26.33
2018-01-15T05:36:05.168Z,27.73
2018-01-15T05:38:32.642Z,25.07
2018-01-15T05:41:00.139Z,20.50
2018-01-15T05:43:28.379Z,27.13
2018-01-15T05:45:55.879Z,26.50
2018-01-15T05:48:23.353Z,26.03
2018-01-15T05:50:50.851Z,26.50
2018-01-15T05:53:19.099Z,28.20
2018-01-15T05:55:46.595Z,29.57
2018-01-15T05:58:14.834Z,26.10
2018-01-15T06:00:42.334Z,27.10
2018-01-15T06:03:09.806Z,25.90
2018-01-15T06:05:37.284Z,27.87
2018-01-15T06:08:04.779Z,24.10
2018-01-15T06:10:32.263Z,23.67
2018-01-15T06:12:59.776Z,24.27
2018-01-15T06:15:27.258Z,20.80
2018-01-15T06:17:54.755Z,26.13
2018-01-15T06:20:23.004Z,22.83
2018-01-15T06:22:50.503Z,28.63
2018-01-15T06:25:18.746Z,22.00
2018-01-15T06:27:46.244Z,23.53
2018-01-15T06:30:13.722Z,29.63
2018-01-15T06:32:41.223Z,26.77
2018-01-15T06:35:08.698Z,25.03
2018-01-15T06:37:36.191Z,26.77
2018-01-15T06:40:03.672Z,30.27
2018-01-15T06:42:31.166Z,26.03
2018-01-15T06:44:58.648Z,29.30
2018-01-15T06:47:26.916Z,32.90
2018-01-15T06:49:54.394Z,29.17
2018-01-15T06:52:21.895Z,30.50
2018-01-15T06:54:49.374Z,31.00
2018-01-15T06:57:16.879Z,28.33
2018-01-15T06:59:44.367Z,27.80
2018-01-15T07:02:11.863Z,32.13
2018-01-15T07:04:40.113Z,31.43
2018-01-15T07:07:07.587Z,32.67
2018-01-15T07:09:35.083Z,27.00
2018-01-15T07:12:03.330Z,34.13
2018-01-15T07:14:30.826Z,33.63
2018-01-15T07:16:58.307Z,27.50
2018-01-15T07:19:25.801Z,31.87
2018-01-15T07:21:53.273Z,30.73
2018-01-15T07:24:20.771Z,30.87
2018-01-15T07:26:48.247Z,35.80
2018-01-15T07:29:15.742Z,34.97
2018-01-15T07:31:43.223Z,32.90
2018-01-15T07:34:10.720Z,31.77
2018-01-15T07:36:38.198Z,31.57
2018-01-15T07:39:05.695Z,29.20
2018-01-15T07:41:33.179Z,30.90
2018-01-15T07:44:00.670Z,30.43
2018-01-15T07:46:28.143Z,37.50
2018-01-15T07:48:55.637Z,39.10
2018-01-15T07:51:23.110Z,35.40
2018-01-15T07:53:50.615Z,40.17
2018-01-15T07:56:18.100Z,35.07
2018-01-15T07:58:45.594Z,42.67
2018-01-15T08:01:13.843Z,33.70
2018-01-15T08:03:41.323Z,35.60
2018-01-15T08:06:08.824Z,39.00
2018-01-15T08:08:37.070Z,36.10
2018-01-15T08:11:04.567Z,39.50
2018-01-15T08:13:32.048Z,40.73
2018-01-15T08:15:59.547Z,33.60
2018-01-15T08:18:27.031Z,32.53
2018-01-15T08:20:54.535Z,32.20
2018-01-15T08:23:22.015Z,28.97
2018-01-15T08:25:49.510Z,33.27
2018-01-15T08:28:17.759Z,31.23
2018-01-15T08:30:45.260Z,35.70
2018-01-15T08:33:13.507Z,32.20
2018-01-15T08:35:41.002Z,28.47
2018-01-15T08:38:08.487Z,30.90
2018-01-15T08:40:36.746Z,31.10
2018-01-15T08:43:04.222Z,34.70
2018-01-15T08:45:31.718Z,30.37
2018-01-15T08:47:59.963Z,30.97
2018-01-15T08:50:27.466Z,28.30
2018-01-15T08:52:54.946Z,27.73
2018-01-15T08:55:23.206Z,29.57
2018-01-15T08:57:50.687Z,29.67
2018-01-15T09:00:18.190Z,30.57
2018-01-15T09:02:45.671Z,25.33
2018-01-15T09:05:13.181Z,31.50
2018-01-15T09:07:40.658Z,28.73
2018-01-15T09:10:08.140Z,28.13
2018-01-15T09:12:35.643Z,31.20
2018-01-15T09:15:03.128Z,31.27
2018-01-15T09:17:30.630Z,30.37
2018-01-15T09:19:58.112Z,26.53
2018-01-15T09:22:25.602Z,29.50
2018-01-15T09:24:53.843Z,30.30
2018-01-15T09:27:21.347Z,27.37
2018-01-15T09:29:48.827Z,25.93
2018-01-15T09:32:17.089Z,31.13
2018-01-15T09:34:44.568Z,29.10
2018-01-15T09:37:12.062Z,32.10
2018-01-15T09:39:40.317Z,23.30
2018-01-15T09:42:07.824Z,29.67
2018-01-15T09:44:36.067Z,33.40
2018-01-15T09:47:03.576Z,30.57
2018-01-15T09:49:31.830Z,30.10
2018-01-15T09:51:59.322Z,31.20
2018-01-15T09:56:57.846Z,33.10
2018-01-15T09:59:25.335Z,33.27
2018-01-15T10:01:53.590Z,49.03
2018-01-15T10:04:21.063Z,32.93
2018-01-15T10:06:48.560Z,36.83
2018-01-15T10:09:16.823Z,50.53
2018-01-15T10:11:44.304Z,40.47
2018-01-15T10:14:11.804Z,31.47
2018-01-15T10:16:39.282Z,28.07
2018-01-15T10:19:06.779Z,26.77
2018-01-15T10:21:34.257Z,32.20
2018-01-15T10:24:01.751Z,27.37
2018-01-15T10:26:29.231Z,31.03
2018-01-15T10:28:57.491Z,25.13
2018-01-15T10:31:24.966Z,27.13
2018-01-15T10:33:52.466Z,28.10
2018-01-15T10:36:20.710Z,25.90
2018-01-15T10:38:48.211Z,34.17
2018-01-15T10:41:16.463Z,29.27
2018-01-15T10:43:43.955Z,26.27
2018-01-15T10:46:11.434Z,30.57
2018-01-15T10:48:38.932Z,30.10
2018-01-15T10:51:06.407Z,25.93
2018-01-15T10:53:33.902Z,26.30
2018-01-15T10:56:01.398Z,24.30
2018-01-15T10:58:28.896Z,26.73
2018-01-15T11:00:57.138Z,23.33
2018-01-15T11:03:24.632Z,28.70
2018-01-15T11:05:52.102Z,30.97
2018-01-15T11:08:19.606Z,25.37
2018-01-15T11:10:47.088Z,28.40
2018-01-15T11:13:14.562Z,27.60
2018-01-15T11:15:42.059Z,23.23
2018-01-15T11:18:09.535Z,26.67
2018-01-15T11:20:37.029Z,26.40
2018-01-15T11:23:05.276Z,25.73
2018-01-15T11:25:32.778Z,24.20
2018-01-15T11:28:01.030Z,27.23
2018-01-15T11:30:28.523Z,24.13
2018-01-15T11:32:56.003Z,25.67
2018-01-15T11:35:23.503Z,26.07
2018-01-15T11:37:50.984Z,21.90
2018-01-15T11:40:18.482Z,24.27
2018-01-15T11:42:45.953Z,25.70
2018-01-15T11:45:13.452Z,23.33
2018-01-15T11:47:40.938Z,30.57
2018-01-15T11:50:09.203Z,30.67
2018-01-15T11:52:36.674Z,25.87
2018-01-15T11:55:04.179Z,29.40
2018-01-15T11:57:31.670Z,27.83
2018-01-15T11:59:59.168Z,25.20
2018-01-15T12:02:26.642Z,25.90
2018-01-15T12:04:54.123Z,26.77
2018-01-15T12:07:21.622Z,24.47
2018-01-15T12:09:49.866Z,29.23
2018-01-15T12:12:17.366Z,32.20
2018-01-15T12:14:45.610Z,26.93
2018-01-15T12:17:13.102Z,25.20
2018-01-15T12:19:40.624Z,23.83
2018-01-15T12:22:08.110Z,25.40
2018-01-15T12:24:35.587Z,27.53
2018-01-15T12:27:03.080Z,24.97
2018-01-15T12:29:30.563Z,26.40
2018-01-15T12:31:58.059Z,30.20
2018-01-15T12:34:26.302Z,26.50
2018-01-15T12:36:53.795Z,23.27
2018-01-15T12:39:21.272Z,21.17
2018-01-15T12:41:49.538Z,22.77
2018-01-15T12:44:17.020Z,23.80
2018-01-15T12:46:44.520Z,21.83
2018-01-15T12:49:12.005Z,23.43
2018-01-15T12:51:39.503Z,23.47
2018-01-15T12:54:07.034Z,23.83
2018-01-15T12:56:34.530Z,24.37
2018-01-15T12:59:02.779Z,21.57
2018-01-15T13:01:31.047Z,24.13
2018-01-15T13:03:58.532Z,17.47
2018-01-15T13:06:38.642Z,22.53
2018-01-15T13:09:06.115Z,18.33
2018-01-15T13:11:34.454Z,21.67
2018-01-15T13:14:02.723Z,19.10
2018-01-15T13:16:30.208Z,22.60
2018-01-15T13:18:58.476Z,18.17
2018-01-15T13:21:25.959Z,20.40
2018-01-15T13:23:53.457Z,20.00
2018-01-15T13:26:20.934Z,19.13
2018-01-15T13:28:48.444Z,19.00
2018-01-15T13:31:15.933Z,21.00
2018-01-15T13:33:43.435Z,18.20
2018-01-15T13:36:10.910Z,16.80
2018-01-15T13:38:38.411Z,14.27
2018-01-15T13:41:05.883Z,18.50
2018-01-15T13:43:33.379Z,17.47
2018-01-15T13:46:00.854Z,17.97
2018-01-15T13:48:28.357Z,17.80
2018-01-15T13:50:55.830Z,15.33
2018-01-15T13:53:23.326Z,22.80
2018-01-15T13:55:50.803Z,14.03
2018-01-15T13:58:18.300Z,17.33
2018-01-15T14:00:45.779Z,13.67
2018-01-15T14:03:14.047Z,13.97
2018-01-15T14:05:41.519Z,14.97
2018-01-15T14:08:09.017Z,15.10
2018-01-15T14:10:37.259Z,14.27
2018-01-15T14:13:04.760Z,13.40
2018-01-15T14:15:32.239Z,16.60
2018-01-15T14:18:00.483Z,11.90
2018-01-15T14:20:27.972Z,14.30
2018-01-15T14:22:55.460Z,11.83
2018-01-15T14:25:22.951Z,13.17
2018-01-15T14:27:51.203Z,13.47
2018-01-15T14:30:18.692Z,13.87
2018-01-15T14:32:46.939Z,12.03
2018-01-15T14:35:14.435Z,10.93
2018-01-15T14:37:42.056Z,9.70
2018-01-15T14:40:10.199Z,11.43
2018-01-15T14:42:37.666Z,10.93
2018-01-15T14:45:05.160Z,15.00
2018-01-15T14:47:33.395Z,10.70
2018-01-15T14:50:00.892Z,9.30
2018-01-15T14:52:28.370Z,10.00
2018-01-15T14:54:55.859Z,10.87
2018-01-15T14:57:24.094Z,9.83
2018-01-15T14:59:51.592Z,13.23
2018-01-15T15:02:19.071Z,14.00
2018-01-15T15:04:46.566Z,10.27
2018-01-15T15:07:14.034Z,9.27
2018-01-15T15:09:41.523Z,10.20
2018-01-15T15:12:09.011Z,11.03
2018-01-15T15:14:36.520Z,11.87
2018-01-15T15:17:04.770Z,8.70
2018-01-15T15:19:32.252Z,10.67
2018-01-15T15:21:59.752Z,12.90
2018-01-15T15:24:27.995Z,12.60
2018-01-15T15:26:55.487Z,14.87
2018-01-15T15:29:22.964Z,12.80
2018-01-15T15:31:50.458Z,12.93
2018-01-15T15:34:18.699Z,11.23
2018-01-15T15:36:46.204Z,13.90
2018-01-15T15:39:14.447Z,13.77
2018-01-15T15:41:41.942Z,15.73
2018-01-15T15:44:09.419Z,20.37
2018-01-15T15:46:36.925Z,15.73
2018-01-15T15:49:04.399Z,18.93
2018-01-15T15:51:31.890Z,15.13
2018-01-15T15:53:59.367Z,21.63
2018-01-15T15:56:26.863Z,21.67
2018-01-15T15:58:54.351Z,19.63
2018-01-15T16:01:22.615Z,20.10
2018-01-15T16:03:50.095Z,21.73
2018-01-15T16:06:17.599Z,20.50
2018-01-15T16:08:45.839Z,21.37
2018-01-15T16:11:13.349Z,20.27
2018-01-15T16:13:41.595Z,22.83
2018-01-15T16:16:09.098Z,20.40
2018-01-15T16:18:37.353Z,25.97
2018-01-15T16:21:04.835Z,24.10
2018-01-15T16:23:32.332Z,18.97
2018-01-15T16:26:00.575Z,24.03
2018-01-15T16:28:28.086Z,26.80
2018-01-15T16:30:56.329Z,22.57
2018-01-15T16:33:23.826Z,28.93
2018-01-15T16:35:51.307Z,19.40
2018-01-15T16:38:19.572Z,27.33
2018-01-15T16:40:47.049Z,19.60
2018-01-15T16:43:14.559Z,21.97
2018-01-15T16:45:42.043Z,25.10
2018-01-15T16:48:09.539Z,20.03
2018-01-15T16:50:37.025Z,22.97
2018-01-15T16:53:04.523Z,22.40
2018-01-15T16:55:32.758Z,21.17
2018-01-15T16:58:00.260Z,20.97
2018-01-15T17:00:27.747Z,19.33
2018-01-15T17:02:56.022Z,18.67
2018-01-15T17:05:23.499Z,18.50
2018-01-15T17:07:50.994Z,22.77
2018-01-15T17:10:18.479Z,19.27
2018-01-15T17:12:45.971Z,16.07
2018-01-15T17:15:13.456Z,22.30
2018-01-15T17:17:40.950Z,20.50
2018-01-15T17:20:09.190Z,15.83
2018-01-15T17:22:36.662Z,20.27
2018-01-15T17:25:04.167Z,22.20
2018-01-15T17:27:31.651Z,20.87
2018-01-15T17:29:59.912Z,22.10
2018-01-15T17:32:27.394Z,19.50
2018-01-15T17:34:55.668Z,16.97
2018-01-15T17:37:23.142Z,17.90
2018-01-15T17:39:50.636Z,16.93
2018-01-15T17:42:18.886Z,18.90
2018-01-15T17:44:46.391Z,17.20
2018-01-15T17:47:14.636Z,18.80
2018-01-15T17:49:42.137Z,18.40
2018-01-15T17:52:09.619Z,17.73
2018-01-15T17:54:37.879Z,17.93
2018-01-15T17:57:05.360Z,22.37
2018-01-15T17:59:32.856Z,18.97
2018-01-15T18:02:01.098Z,19.87
2018-01-15T18:04:28.602Z,15.83
2018-01-15T18:06:56.856Z,15.57
2018-01-15T18:09:24.355Z,16.90
2018-01-15T18:11:51.834Z,16.43
2018-01-15T18:14:20.099Z,17.10
2018-01-15T18:16:47.583Z,19.30
2018-01-15T18:19:15.069Z,17.30
2018-01-15T18:21:43.336Z,21.73
2018-01-15T18:24:10.823Z,13.87
2018-01-15T18:26:39.087Z,19.03
2018-01-15T18:29:06.567Z,16.17
2018-01-15T18:31:34.070Z,16.60
2018-01-15T18:34:01.547Z,14.53
2018-01-15T18:36:29.042Z,14.97
2018-01-15T18:38:56.523Z,15.27
2018-01-15T18:41:24.013Z,12.23
2018-01-15T18:43:51.496Z,12.07
2018-01-15T18:46:18.990Z,16.80
2018-01-15T18:48:46.468Z,16.10
2018-01-15T18:51:13.970Z,18.13
2018-01-15T18:53:41.465Z,13.47
2018-01-15T18:56:08.963Z,11.90
2018-01-15T18:58:37.204Z,11.57
2018-01-15T19:01:04.699Z,17.00
2018-01-15T19:03:32.174Z,12.57
2018-01-15T19:06:00.426Z,8.83
2018-01-15T19:08:27.904Z,14.70
2018-01-15T19:10:55.399Z,11.27
2018-01-15T19:13:23.647Z,7.73
2018-01-15T19:15:51.143Z,9.20
2018-01-15T19:18:18.623Z,12.23
2018-01-15T19:20:46.100Z,10.33
2018-01-15T19:23:14.371Z,8.30
2018-01-15T19:25:41.867Z,14.50
2018-01-15T19:28:09.382Z,13.07
2018-01-15T19:30:36.858Z,8.87
2018-01-15T19:33:04.351Z,10.30
2018-01-15T19:35:46.711Z,12.30
2018-01-15T19:38:25.902Z,12.13
2018-01-15T19:40:53.376Z,9.30
2018-01-15T19:43:23.508Z,7.10
2018-01-15T19:45:56.565Z,8.40
2018-01-15T19:48:29.704Z,10.53
2018-01-15T19:51:02.867Z,8.90
2018-01-15T19:53:36.443Z,8.57
2018-01-15T19:59:25.010Z,10.57
2018-01-15T20:01:58.138Z,8.33
2018-01-15T20:04:31.225Z,10.63
2018-01-15T20:07:04.500Z,6.90
2018-01-15T20:09:37.631Z,6.87
2018-01-15T20:12:05.122Z,7.27
2018-01-15T20:14:32.628Z,6.93
2018-01-15T20:17:00.103Z,7.37
2018-01-15T20:19:27.607Z,7.60
2018-01-15T20:21:55.085Z,5.80
2018-01-15T20:24:22.606Z,6.83
2018-01-15T20:26:50.091Z,8.47
2018-01-15T20:29:17.587Z,11.60
2018-01-15T20:31:45.075Z,8.40
2018-01-15T20:34:12.582Z,7.00
2018-01-15T20:36:40.067Z,5.50
2018-01-15T20:39:07.559Z,6.47
2018-01-15T20:41:35.031Z,7.00
2018-01-15T20:44:02.531Z,6.03
2018-01-15T20:46:30.015Z,8.10
2018-01-15T20:48:57.509Z,7.90
2018-01-15T20:51:25.744Z,6.97
2018-01-15T20:53:53.246Z,5.93
2018-01-15T20:56:21.494Z,6.93
2018-01-15T20:58:48.971Z,6.77
2018-01-15T21:01:16.451Z,6.50
2018-01-15T21:03:43.944Z,5.87
2018-01-15T21:06:12.187Z,5.70
2018-01-15T21:08:39.838Z,7.20
2018-01-15T21:11:08.070Z,6.13
2018-01-15T21:13:35.543Z,8.30
2018-01-15T21:16:03.039Z,5.33
2018-01-15T21:18:31.283Z,7.20
2018-01-15T21:20:58.797Z,7.70
2018-01-15T21:23:27.044Z,6.70
2018-01-15T21:25:54.534Z,8.83
2018-01-15T21:28:22.012Z,6.17
2018-01-15T21:30:49.503Z,7.53
2018-01-15T21:33:17.743Z,5.93
2018-01-15T21:35:45.225Z,6.60
2018-01-15T21:38:12.703Z,7.40
2018-01-15T21:40:40.971Z,5.63
2018-01-15T21:43:08.448Z,7.70
2018-01-15T21:45:35.943Z,5.60
2018-01-15T21:48:04.186Z,4.80
2018-01-15T21:50:31.675Z,7.00
2018-01-15T21:52:59.144Z,7.23
2018-01-15T21:55:26.635Z,6.10
2018-01-15T21:57:54.106Z,7.43
2018-01-15T22:00:21.607Z,5.70
2018-01-15T22:02:49.093Z,5.80
2018-01-15T22:05:16.578Z,5.80
2018-01-15T22:07:44.053Z,6.83
2018-01-15T22:10:11.544Z,7.53
2018-01-15T22:12:39.019Z,4.93
2018-01-15T22:15:07.275Z,6.17
2018-01-15T22:17:34.771Z,6.70
2018-01-15T22:20:02.239Z,4.87
2018-01-15T22:22:29.734Z,6.13
2018-01-15T22:24:57.967Z,5.63
2018-01-15T22:27:25.458Z,6.13
2018-01-15T22:29:52.926Z,4.73
2018-01-15T22:32:20.420Z,5.60
2018-01-15T22:34:47.894Z,4.63
2018-01-15T22:37:16.147Z,3.93
2018-01-15T22:39:43.619Z,5.50
2018-01-15T22:42:11.111Z,4.50
2018-01-15T22:44:38.623Z,3.30
2018-01-15T22:47:06.118Z,3.57
2018-01-15T22:49:33.595Z,3.37
2018-01-15T22:52:01.087Z,2.80
2018-01-15T22:54:28.558Z,2.30
2018-01-15T22:56:56.060Z,2.30
2018-01-15T22:59:23.535Z,6.50
2018-01-15T23:01:51.031Z,1.70
2018-01-15T23:04:18.499Z,3.10
2018-01-15T23:06:45.986Z,1.93
2018-01-15T23:09:13.452Z,2.90
2018-01-15T23:11:40.918Z,1.90
2018-01-15T23:14:08.411Z,2.40
2018-01-15T23:16:35.875Z,2.40
2018-01-15T23:19:03.372Z,1.83
2018-01-15T23:21:30.855Z,2.37
2018-01-15T23:23:58.358Z,2.63
2018-01-15T23:26:25.831Z,2.60
2018-01-15T23:28:53.323Z,2.50
2018-01-15T23:31:20.794Z,1.87
2018-01-15T23:33:48.288Z,1.97
2018-01-15T23:36:16.531Z,2.10
2018-01-15T23:38:44.022Z,1.70
2018-01-15T23:41:11.504Z,1.87
2018-01-15T23:43:39.000Z,2.37
2018-01-15T23:46:06.477Z,1.63
2018-01-15T23:48:34.734Z,3.10
2018-01-15T23:51:02.971Z,2.13
2018-01-15T23:53:31.227Z,2.10
2018-01-15T23:55:59.462Z,1.40
2018-01-15T23:58:26.957Z,3.33
